createdAt,value
2023-05-03T00:00:00.165Z,40.12
2023-05-03T00:02:28.453Z,40.71
2023-05-03T00:04:57.189Z,40.57
2023-05-03T00:07:25.256Z,40.77
2023-05-03T00:09:53.528Z,39.99
2023-05-03T00:12:21.466Z,40.04
2023-05-03T00:14:49.351Z,41.19
2023-05-03T00:17:18.896Z,41.32
2023-05-03T00:19:46.769Z,40.54
2023-05-03T00:22:15.133Z,41.21
2023-05-03T00:24:42.907Z,41.63
2023-05-03T00:27:10.776Z,41.31
2023-05-03T00:29:38.906Z,41.22
2023-05-03T00:32:07.955Z,42.44
2023-05-03T00:34:37.320Z,41.40
2023-05-03T00:37:05.435Z,42.20
2023-05-03T00:39:33.956Z,40.94
2023-05-03T00:42:02.522Z,40.98
2023-05-03T00:44:30.605Z,41.04
2023-05-03T00:47:01.264Z,41.43
2023-05-03T00:49:29.474Z,41.31
2023-05-03T00:51:59.425Z,42.22
2023-05-03T00:54:29.095Z,41.91
2023-05-03T00:56:57.865Z,41.33
2023-05-03T00:59:26.443Z,42.15
2023-05-03T01:01:54.601Z,41.50
2023-05-03T01:04:23.916Z,42.03
2023-05-03T01:07:04.796Z,41.60
2023-05-03T01:09:39.607Z,41.90
2023-05-03T01:12:20.698Z,41.91
2023-05-03T01:14:59.695Z,41.85
2023-05-03T01:17:30.318Z,42.27
2023-05-03T01:20:08.283Z,41.75
2023-05-03T01:22:47.747Z,42.24
2023-05-03T01:25:17.356Z,42.32
2023-05-03T01:27:45.764Z,42.51
2023-05-03T01:30:14.516Z,41.51
2023-05-03T01:32:53.205Z,42.44
2023-05-03T01:35:28.035Z,42.49
2023-05-03T01:37:58.541Z,42.70
2023-05-03T01:40:29.384Z,43.60
2023-05-03T01:42:58.444Z,43.67
2023-05-03T01:45:26.814Z,43.66
2023-05-03T01:47:57.554Z,44.38
2023-05-03T01:50:25.690Z,44.46
2023-05-03T01:52:53.917Z,44.30
2023-05-03T01:55:21.855Z,45.13
2023-05-03T01:57:51.508Z,45.01
2023-05-03T02:00:20.139Z,44.83
2023-05-03T02:02:48.360Z,44.45
2023-05-03T02:05:16.602Z,44.67
2023-05-03T02:07:44.519Z,43.73
2023-05-03T02:10:15.027Z,43.71
2023-05-03T02:12:43.589Z,42.90
2023-05-03T02:15:14.434Z,43.32
2023-05-03T02:17:45.621Z,42.90
2023-05-03T02:20:14.813Z,43.19
2023-05-03T02:22:43.315Z,43.45
2023-05-03T02:25:11.847Z,43.30
2023-05-03T02:27:41.627Z,42.86
2023-05-03T02:30:10.369Z,43.08
2023-05-03T02:32:44.835Z,42.96
2023-05-03T02:35:13.600Z,42.62
2023-05-03T02:37:41.581Z,42.87
2023-05-03T02:40:13.553Z,43.15
2023-05-03T02:42:43.798Z,42.47
2023-05-03T02:45:12.795Z,42.72
2023-05-03T02:47:40.931Z,43.34
2023-05-03T02:50:11.357Z,43.87
2023-05-03T02:52:41.274Z,43.74
2023-05-03T02:55:10.919Z,44.40
2023-05-03T02:57:42.426Z,43.16
2023-05-03T03:00:15.831Z,43.51
2023-05-03T03:02:44.782Z,43.74
2023-05-03T03:05:14.649Z,43.30
2023-05-03T03:08:01.578Z,43.27
2023-05-03T03:10:42.316Z,42.87
2023-05-03T03:13:15.542Z,42.60
2023-05-03T03:15:47.432Z,43.29
2023-05-03T03:18:17.671Z,44.11
2023-05-03T03:20:53.471Z,44.33
2023-05-03T03:23:32.979Z,43.05
2023-05-03T03:26:01.350Z,43.11
2023-05-03T03:28:30.396Z,43.43
2023-05-03T03:31:02.164Z,43.05
2023-05-03T03:33:30.918Z,43.20
2023-05-03T03:36:10.390Z,43.51
2023-05-03T03:38:42.623Z,43.67
2023-05-03T03:41:13.063Z,43.80
2023-05-03T03:43:41.784Z,44.01
2023-05-03T03:46:16.351Z,44.66
2023-05-03T03:48:45.095Z,44.83
2023-05-03T03:51:14.889Z,44.32
2023-05-03T03:53:47.876Z,44.44
2023-05-03T03:56:16.969Z,43.66
2023-05-03T03:58:46.746Z,43.35
2023-05-03T04:01:25.172Z,43.51
2023-05-03T04:03:54.241Z,44.03
2023-05-03T04:06:24.006Z,45.19
2023-05-03T04:08:52.083Z,45.27
2023-05-03T04:11:21.542Z,45.53
2023-05-03T04:13:54.947Z,45.12
2023-05-03T04:16:23.369Z,44.79
2023-05-03T04:18:51.854Z,44.77
2023-05-03T04:21:19.981Z,43.72
2023-05-03T04:23:50.033Z,45.13
2023-05-03T04:26:31.104Z,44.96
2023-05-03T04:29:06.263Z,45.02
2023-05-03T04:31:35.423Z,44.22
2023-05-03T04:34:03.245Z,44.47
2023-05-03T04:36:31.379Z,44.74
2023-05-03T04:39:01.536Z,44.72
2023-05-03T04:41:29.362Z,44.68
2023-05-03T04:43:58.143Z,44.62
2023-05-03T04:46:26.046Z,45.09
2023-05-03T04:48:54.021Z,44.32
2023-05-03T04:51:21.977Z,44.52
2023-05-03T04:53:51.943Z,44.06
2023-05-03T04:56:26.318Z,44.75
2023-05-03T04:59:00.197Z,44.41
2023-05-03T05:01:28.570Z,44.50
2023-05-03T05:04:01.173Z,44.41
2023-05-03T05:06:35.759Z,43.35
2023-05-03T05:09:04.505Z,43.25
2023-05-03T05:11:34.549Z,43.67
2023-05-03T05:14:02.712Z,43.91
2023-05-03T05:16:30.708Z,43.72
2023-05-03T05:18:59.412Z,41.78
2023-05-03T05:21:28.705Z,42.02
2023-05-03T05:23:57.425Z,42.81
2023-05-03T05:26:26.095Z,41.68
2023-05-03T05:28:55.793Z,40.13
2023-05-03T05:31:24.476Z,40.83
2023-05-03T05:33:53.295Z,39.98
2023-05-03T05:36:21.566Z,40.22
2023-05-03T05:38:51.315Z,39.68
2023-05-03T05:41:19.767Z,39.97
2023-05-03T05:43:48.505Z,40.45
2023-05-03T05:46:21.093Z,39.05
2023-05-03T05:48:52.497Z,39.32
2023-05-03T05:51:21.272Z,40.76
2023-05-03T05:53:49.536Z,39.56
2023-05-03T05:56:19.265Z,38.80
2023-05-03T05:58:51.880Z,39.64
2023-05-03T06:01:21.172Z,39.02
2023-05-03T06:03:49.099Z,40.41
2023-05-03T06:06:17.015Z,39.32
2023-05-03T06:08:45.612Z,38.24
2023-05-03T06:11:14.457Z,37.96
2023-05-03T06:13:43.165Z,37.02
2023-05-03T06:16:12.940Z,38.47
2023-05-03T06:18:42.285Z,37.16
2023-05-03T06:21:11.479Z,35.87
2023-05-03T06:23:40.042Z,37.01
2023-05-03T06:26:09.679Z,36.75
2023-05-03T06:28:37.669Z,36.83
2023-05-03T06:31:06.266Z,37.14
2023-05-03T06:33:34.525Z,37.28
2023-05-03T06:36:03.868Z,35.51
2023-05-03T06:38:31.829Z,35.38
2023-05-03T06:40:59.743Z,36.27
2023-05-03T06:43:28.124Z,36.02
2023-05-03T06:46:04.322Z,36.17
2023-05-03T06:48:32.293Z,37.19
2023-05-03T06:51:00.237Z,36.14
2023-05-03T06:53:29.944Z,36.76
2023-05-03T06:55:57.990Z,36.94
2023-05-03T06:58:25.998Z,34.71
2023-05-03T07:00:54.517Z,35.18
2023-05-03T07:03:22.554Z,35.01
2023-05-03T07:05:50.502Z,33.68
2023-05-03T07:08:18.497Z,36.63
2023-05-03T07:10:47.755Z,34.86
2023-05-03T07:13:15.570Z,34.14
2023-05-03T07:15:44.130Z,32.69
2023-05-03T07:18:12.130Z,32.69
2023-05-03T07:20:40.258Z,32.23
2023-05-03T07:23:08.236Z,32.47
2023-05-03T07:25:36.259Z,30.75
2023-05-03T07:28:06.029Z,31.34
2023-05-03T07:30:33.931Z,31.16
2023-05-03T07:33:02.054Z,31.53
2023-05-03T07:35:30.569Z,30.17
2023-05-03T07:37:58.495Z,29.87
2023-05-03T07:40:28.703Z,28.52
2023-05-03T07:42:56.667Z,29.68
2023-05-03T07:45:27.601Z,29.76
2023-05-03T07:47:56.562Z,29.57
2023-05-03T07:50:24.823Z,29.22
2023-05-03T07:52:53.199Z,28.42
2023-05-03T07:55:21.572Z,27.37
2023-05-03T07:57:50.998Z,30.17
2023-05-03T08:00:19.271Z,29.98
2023-05-03T08:02:48.912Z,30.30
2023-05-03T08:05:18.085Z,30.84
2023-05-03T08:07:46.485Z,29.64
2023-05-03T08:10:14.583Z,31.75
2023-05-03T08:12:42.864Z,32.24
2023-05-03T08:15:11.498Z,31.64
2023-05-03T08:17:43.367Z,31.81
2023-05-03T08:20:13.841Z,31.64
2023-05-03T08:22:42.548Z,30.21
2023-05-03T08:25:12.150Z,31.24
2023-05-03T08:27:40.274Z,29.10
2023-05-03T08:30:09.506Z,30.33
2023-05-03T08:32:37.525Z,29.03
2023-05-03T08:35:07.507Z,27.85
2023-05-03T08:37:41.037Z,28.11
2023-05-03T08:40:11.926Z,28.25
2023-05-03T08:42:41.198Z,30.18
2023-05-03T08:45:11.531Z,28.79
2023-05-03T08:47:41.473Z,29.21
2023-05-03T08:50:10.977Z,29.75
2023-05-03T08:52:40.748Z,29.39
2023-05-03T08:55:09.300Z,29.39
2023-05-03T08:57:37.634Z,29.62
2023-05-03T09:00:10.893Z,30.48
2023-05-03T09:02:40.058Z,31.82
2023-05-03T09:05:33.156Z,30.59
2023-05-03T09:08:07.628Z,29.00
2023-05-03T09:10:39.422Z,28.36
2023-05-03T09:13:07.874Z,29.09
2023-05-03T09:15:36.624Z,28.38
2023-05-03T09:18:13.102Z,28.45
2023-05-03T09:20:42.825Z,28.87
2023-05-03T09:23:12.441Z,31.83
2023-05-03T09:25:45.771Z,30.24
2023-05-03T09:28:13.915Z,28.87
2023-05-03T09:30:42.205Z,27.86
2023-05-03T09:33:10.702Z,30.00
2023-05-03T09:35:39.315Z,28.75
2023-05-03T09:38:07.283Z,28.72
2023-05-03T09:40:47.595Z,28.92
2023-05-03T09:43:18.104Z,27.95
2023-05-03T09:45:47.248Z,27.96
2023-05-03T09:48:15.625Z,29.56
2023-05-03T09:50:44.592Z,29.19
2023-05-03T09:53:12.952Z,28.20
2023-05-03T09:55:42.442Z,28.11
2023-05-03T09:58:10.633Z,27.43
2023-05-03T10:00:39.417Z,26.97
2023-05-03T10:03:10.408Z,26.12
2023-05-03T10:05:47.341Z,29.09
2023-05-03T10:08:24.290Z,28.07
2023-05-03T10:10:54.462Z,27.28
2023-05-03T10:13:23.541Z,25.79
2023-05-03T10:15:56.716Z,26.13
2023-05-03T10:18:28.900Z,26.54
2023-05-03T10:21:02.687Z,28.11
2023-05-03T10:23:30.639Z,27.59
2023-05-03T10:26:18.170Z,26.16
2023-05-03T10:28:46.315Z,27.00
2023-05-03T10:31:46.977Z,26.76
2023-05-03T10:34:22.325Z,28.08
2023-05-03T10:36:52.615Z,27.25
2023-05-03T10:39:20.819Z,27.64
2023-05-03T10:42:01.488Z,27.48
2023-05-03T10:44:30.756Z,26.15
2023-05-03T10:46:58.795Z,25.65
2023-05-03T10:49:27.615Z,25.48
2023-05-03T10:51:56.092Z,25.54
2023-05-03T10:54:25.685Z,26.83
2023-05-03T10:56:57.056Z,25.65
2023-05-03T10:59:27.191Z,24.86
2023-05-03T11:01:55.759Z,24.85
2023-05-03T11:04:37.794Z,25.04
2023-05-03T11:07:05.835Z,25.72
2023-05-03T11:09:35.501Z,24.64
2023-05-03T11:12:08.821Z,24.74
2023-05-03T11:14:39.831Z,24.44
2023-05-03T11:17:08.271Z,26.87
2023-05-03T11:19:36.504Z,26.36
2023-05-03T11:22:05.152Z,26.22
2023-05-03T11:24:36.205Z,26.30
2023-05-03T11:27:08.472Z,27.46
2023-05-03T11:29:40.189Z,25.72
2023-05-03T11:32:10.560Z,26.31
2023-05-03T11:34:40.076Z,24.71
2023-05-03T11:37:10.922Z,24.12
2023-05-03T11:39:39.156Z,25.37
2023-05-03T11:42:07.267Z,26.25
2023-05-03T11:44:35.932Z,26.08
2023-05-03T11:47:05.813Z,27.20
2023-05-03T11:49:33.989Z,27.78
2023-05-03T11:52:02.142Z,26.51
2023-05-03T11:54:31.823Z,26.34
2023-05-03T11:57:01.009Z,24.43
2023-05-03T11:59:36.716Z,25.69
2023-05-03T12:02:07.586Z,25.99
2023-05-03T12:04:36.286Z,25.61
2023-05-03T12:07:05.413Z,24.85
2023-05-03T12:09:34.153Z,25.79
2023-05-03T12:12:05.786Z,26.11
2023-05-03T12:15:08.035Z,25.88
2023-05-03T12:17:39.830Z,24.51
2023-05-03T12:22:51.127Z,25.17
2023-05-03T12:25:21.065Z,25.40
2023-05-03T12:28:05.342Z,24.59
2023-05-03T12:33:28.172Z,24.87
2023-05-03T12:35:59.020Z,24.29
2023-05-03T12:38:30.606Z,24.86
2023-05-03T12:40:59.848Z,25.66
2023-05-03T12:43:27.963Z,25.20
2023-05-03T12:48:33.854Z,25.25
2023-05-03T12:51:18.516Z,25.94
2023-05-03T12:53:54.136Z,26.47
2023-05-03T12:56:26.395Z,25.46
2023-05-03T12:59:14.977Z,24.92
2023-05-03T13:04:44.934Z,25.85
2023-05-03T13:07:12.671Z,24.70
2023-05-03T13:12:30.820Z,24.05
2023-05-03T13:14:59.216Z,24.41
2023-05-03T13:17:27.285Z,24.93
2023-05-03T13:19:57.152Z,24.08
2023-05-03T13:22:25.319Z,22.78
2023-05-03T13:24:53.555Z,24.94
2023-05-03T13:27:22.066Z,25.13
2023-05-03T13:29:50.119Z,25.76
2023-05-03T13:32:18.376Z,25.51
2023-05-03T13:34:46.872Z,24.81
2023-05-03T13:37:18.649Z,24.03
2023-05-03T13:39:46.918Z,25.36
2023-05-03T13:42:14.975Z,25.44
2023-05-03T13:44:43.563Z,25.62
2023-05-03T13:47:12.328Z,25.45
2023-05-03T13:49:40.347Z,25.39
2023-05-03T13:52:08.366Z,24.28
2023-05-03T13:54:38.031Z,24.74
2023-05-03T13:57:06.159Z,24.33
2023-05-03T13:59:34.240Z,25.31
2023-05-03T14:02:02.683Z,25.32
2023-05-03T14:04:31.758Z,24.08
2023-05-03T14:07:03.206Z,23.13
2023-05-03T14:09:31.656Z,22.95
2023-05-03T14:12:01.301Z,23.93
2023-05-03T14:14:29.370Z,23.71
2023-05-03T14:16:57.409Z,24.45
2023-05-03T14:19:25.524Z,25.83
2023-05-03T14:21:59.577Z,25.69
2023-05-03T14:24:27.564Z,24.33
2023-05-03T14:26:55.442Z,25.18
2023-05-03T14:29:34.868Z,25.51
2023-05-03T14:32:03.110Z,25.16
2023-05-03T14:34:31.474Z,24.52
2023-05-03T14:37:00.150Z,25.25
2023-05-03T14:39:28.364Z,25.30
2023-05-03T14:41:56.715Z,25.72
2023-05-03T14:44:26.232Z,23.82
2023-05-03T14:46:54.234Z,25.20
2023-05-03T14:49:23.494Z,24.11
2023-05-03T14:51:52.168Z,23.87
2023-05-03T14:54:22.965Z,23.08
2023-05-03T14:56:50.933Z,22.24
2023-05-03T14:59:18.841Z,20.19
2023-05-03T15:01:48.326Z,19.86
2023-05-03T15:04:18.274Z,19.09
2023-05-03T15:06:46.485Z,18.13
2023-05-03T15:09:14.873Z,15.79
2023-05-03T15:11:43.038Z,17.57
2023-05-03T15:14:14.212Z,17.99
2023-05-03T15:16:42.211Z,18.63
2023-05-03T15:19:11.674Z,19.33
2023-05-03T15:21:47.142Z,18.40
2023-05-03T15:24:15.559Z,16.93
2023-05-03T15:26:43.661Z,15.77
2023-05-03T15:29:12.022Z,16.09
2023-05-03T15:31:40.046Z,17.96
2023-05-03T15:34:08.073Z,16.13
2023-05-03T15:36:37.986Z,15.58
2023-05-03T15:39:06.054Z,15.72
2023-05-03T15:41:34.807Z,16.08
2023-05-03T15:44:05.130Z,16.08
2023-05-03T15:46:33.433Z,18.69
2023-05-03T15:49:01.820Z,17.66
2023-05-03T15:51:29.829Z,17.82
2023-05-03T15:53:59.325Z,17.64
2023-05-03T15:56:28.532Z,17.46
2023-05-03T15:58:56.683Z,17.90
2023-05-03T16:01:25.210Z,17.29
2023-05-03T16:03:53.231Z,15.93
2023-05-03T16:06:21.301Z,16.48
2023-05-03T16:08:49.179Z,16.96
2023-05-03T16:11:20.289Z,14.73
2023-05-03T16:13:48.115Z,16.18
2023-05-03T16:16:16.186Z,17.83
2023-05-03T16:18:44.114Z,17.41
2023-05-03T16:21:12.528Z,17.30
2023-05-03T16:23:40.359Z,15.69
2023-05-03T16:26:15.027Z,16.47
2023-05-03T16:28:44.418Z,17.40
2023-05-03T16:31:12.383Z,16.10
2023-05-03T16:33:40.534Z,16.03
2023-05-03T16:36:09.801Z,16.18
2023-05-03T16:38:38.117Z,16.78
2023-05-03T16:41:07.814Z,16.94
2023-05-03T16:43:37.144Z,17.34
2023-05-03T16:46:07.152Z,18.31
2023-05-03T16:48:35.825Z,16.94
2023-05-03T16:51:04.005Z,16.93
2023-05-03T16:53:32.482Z,17.75
2023-05-03T16:56:01.237Z,19.81
2023-05-03T16:58:29.164Z,20.10
2023-05-03T17:00:57.885Z,20.28
2023-05-03T17:03:27.397Z,20.59
2023-05-03T17:05:55.902Z,21.04
2023-05-03T17:08:24.007Z,21.95
2023-05-03T17:10:52.117Z,22.71
2023-05-03T17:13:20.345Z,23.05
2023-05-03T17:15:48.332Z,23.86
2023-05-03T17:18:16.653Z,22.64
2023-05-03T17:20:46.344Z,23.36
2023-05-03T17:23:20.451Z,23.48
2023-05-03T17:25:48.606Z,24.17
2023-05-03T17:28:19.651Z,24.47
2023-05-03T17:30:47.825Z,23.84
2023-05-03T17:33:16.124Z,23.86
2023-05-03T17:35:45.669Z,24.52
2023-05-03T17:38:14.008Z,24.46
2023-05-03T17:40:43.447Z,25.42
2023-05-03T17:43:12.887Z,24.94
2023-05-03T17:45:41.648Z,25.30
2023-05-03T17:48:09.639Z,25.39
2023-05-03T17:50:37.878Z,24.97
2023-05-03T17:53:07.824Z,24.73
2023-05-03T17:55:38.407Z,25.42
2023-05-03T17:58:07.220Z,24.22
2023-05-03T18:00:35.188Z,24.82
2023-05-03T18:03:03.547Z,25.17
2023-05-03T18:05:36.789Z,25.00
2023-05-03T18:08:05.348Z,24.59
2023-05-03T18:10:36.107Z,25.21
2023-05-03T18:13:04.605Z,25.45
2023-05-03T18:15:32.645Z,25.18
2023-05-03T18:18:01.045Z,25.41
2023-05-03T18:20:29.130Z,25.61
2023-05-03T18:22:57.152Z,25.25
2023-05-03T18:25:25.405Z,25.84
2023-05-03T18:27:57.379Z,25.27
2023-05-03T18:30:28.131Z,25.66
2023-05-03T18:32:56.443Z,26.09
2023-05-03T18:35:24.770Z,26.72
2023-05-03T18:37:53.100Z,26.85
2023-05-03T18:40:21.150Z,27.15
2023-05-03T18:42:49.483Z,26.73
2023-05-03T18:45:19.667Z,26.91
2023-05-03T18:47:47.673Z,26.59
2023-05-03T18:50:16.268Z,27.01
2023-05-03T18:52:44.979Z,27.16
2023-05-03T18:55:12.878Z,27.00
2023-05-03T18:57:40.715Z,27.38
2023-05-03T19:00:10.059Z,27.36
2023-05-03T19:02:39.527Z,28.37
2023-05-03T19:05:10.845Z,28.04
2023-05-03T19:07:42.897Z,27.92
2023-05-03T19:10:11.306Z,28.09
2023-05-03T19:12:40.851Z,28.16
2023-05-03T19:15:10.980Z,27.93
2023-05-03T19:17:42.067Z,28.46
2023-05-03T19:20:21.136Z,28.65
2023-05-03T19:22:49.300Z,28.67
2023-05-03T19:25:18.197Z,28.41
2023-05-03T19:27:47.080Z,28.29
2023-05-03T19:30:19.306Z,28.63
2023-05-03T19:33:04.538Z,29.23
2023-05-03T19:35:47.750Z,28.99
2023-05-03T19:38:27.107Z,28.96
2023-05-03T19:41:08.059Z,29.23
2023-05-03T19:43:46.076Z,29.27
2023-05-03T19:46:28.955Z,29.59
2023-05-03T19:49:10.058Z,29.35
2023-05-03T19:51:45.629Z,29.41
2023-05-03T19:54:15.036Z,29.26
2023-05-03T19:56:47.094Z,28.76
2023-05-03T19:59:18.858Z,29.57
2023-05-03T20:01:47.072Z,29.81
2023-05-03T20:04:16.998Z,29.97
2023-05-03T20:06:45.127Z,30.50
2023-05-03T20:09:13.157Z,30.39
2023-05-03T20:11:41.448Z,30.42
2023-05-03T20:14:09.234Z,30.31
2023-05-03T20:16:39.082Z,30.80
2023-05-03T20:19:07.706Z,31.03
2023-05-03T20:21:39.083Z,31.29
2023-05-03T20:24:11.528Z,30.98
2023-05-03T20:26:39.727Z,31.58
2023-05-03T20:29:07.631Z,31.60
2023-05-03T20:31:35.544Z,31.06
2023-05-03T20:34:03.510Z,31.54
2023-05-03T20:36:31.423Z,32.66
2023-05-03T20:39:01.214Z,32.33
2023-05-03T20:41:32.608Z,32.49
2023-05-03T20:44:00.504Z,32.08
2023-05-03T20:46:29.243Z,32.67
2023-05-03T20:48:58.931Z,32.70
2023-05-03T20:51:28.356Z,32.24
2023-05-03T20:53:57.134Z,32.38
2023-05-03T20:56:26.538Z,32.58
2023-05-03T20:58:54.575Z,32.67
2023-05-03T21:01:24.284Z,32.64
2023-05-03T21:03:57.066Z,32.38
2023-05-03T21:06:24.983Z,32.64
2023-05-03T21:08:52.934Z,32.48
2023-05-03T21:11:20.975Z,33.13
2023-05-03T21:13:50.387Z,33.01
2023-05-03T21:16:18.262Z,32.93
2023-05-03T21:18:46.251Z,33.44
2023-05-03T21:21:14.115Z,33.08
2023-05-03T21:23:41.990Z,32.70
2023-05-03T21:26:09.927Z,32.87
2023-05-03T21:28:38.019Z,33.47
2023-05-03T21:31:13.469Z,33.67
2023-05-03T21:33:41.631Z,34.01
2023-05-03T21:36:10.047Z,33.61
2023-05-03T21:38:38.111Z,33.90
2023-05-03T21:41:07.142Z,35.14
2023-05-03T21:43:35.851Z,34.89
2023-05-03T21:46:04.055Z,35.46
2023-05-03T21:48:40.288Z,35.11
2023-05-03T21:51:09.890Z,35.31
2023-05-03T21:53:38.085Z,34.94
2023-05-03T21:56:06.740Z,34.63
2023-05-03T21:58:34.694Z,34.95
2023-05-03T22:01:03.616Z,34.98
2023-05-03T22:03:34.619Z,35.52
2023-05-03T22:06:04.469Z,35.67
2023-05-03T22:08:34.870Z,35.56
2023-05-03T22:11:06.968Z,35.82
2023-05-03T22:13:39.398Z,35.43
2023-05-03T22:16:13.106Z,35.56
2023-05-03T22:18:41.019Z,34.48
2023-05-03T22:21:10.555Z,36.14
2023-05-03T22:23:38.509Z,34.93
2023-05-03T22:26:06.580Z,36.10
2023-05-03T22:28:34.738Z,36.02
2023-05-03T22:31:03.395Z,36.19
2023-05-03T22:33:31.543Z,36.74
2023-05-03T22:35:59.564Z,37.14
2023-05-03T22:38:28.972Z,36.71
2023-05-03T22:40:57.677Z,36.44
2023-05-03T22:43:25.954Z,37.33
2023-05-03T22:45:54.169Z,38.18
2023-05-03T22:48:22.524Z,37.98
2023-05-03T22:50:50.507Z,37.17
2023-05-03T22:53:18.537Z,37.35
2023-05-03T22:55:56.575Z,37.92
2023-05-03T22:58:25.676Z,37.91
2023-05-03T23:00:53.915Z,37.55
2023-05-03T23:03:22.619Z,37.92
2023-05-03T23:05:53.313Z,37.80
2023-05-03T23:08:22.310Z,38.21
2023-05-03T23:10:54.154Z,37.97
2023-05-03T23:13:22.096Z,38.27
2023-05-03T23:15:50.786Z,37.74
2023-05-03T23:18:18.768Z,37.74
2023-05-03T23:20:47.587Z,37.66
2023-05-03T23:23:15.693Z,38.48
2023-05-03T23:25:43.976Z,37.93
2023-05-03T23:28:13.618Z,38.44
2023-05-03T23:30:44.302Z,38.59
2023-05-03T23:33:12.586Z,38.00
2023-05-03T23:35:41.724Z,37.96
2023-05-03T23:38:09.723Z,38.09
2023-05-03T23:40:37.705Z,38.11
2023-05-03T23:43:05.716Z,38.81
2023-05-03T23:45:35.183Z,38.90
2023-05-03T23:48:03.235Z,38.13
2023-05-03T23:50:32.075Z,38.33
2023-05-03T23:53:01.392Z,38.31
2023-05-03T23:55:29.397Z,39.12
2023-05-03T23:57:57.452Z,39.14
